Time;durP1;ratioP1;P1;durP2;ratioP2;P2;SDS_P1;SDS_P2;PMS_P1;PMS_P2;Temp;Humidity;BMP_temperature;BMP_pressure;BME280_temperature;BME280_humidity;BME280_pressure;Samples;Min_cycle;Max_cycle;Signal;HPM_P1;HPM_P2
2024/01/09 00:02:22;;;;;;;4.15;0.80;;;30.10;92.20;;;;;;5018955;28;20022;-71
2024/01/09 00:04:50;;;;;;;4.15;1.00;;;30.10;92.50;;;;;;5026425;28;20414;-71
2024/01/09 00:07:17;;;;;;;3.50;0.90;;;30.90;92.80;;;;;;5022671;28;20482;-71
2024/01/09 00:09:44;;;;;;;3.58;0.90;;;31.70;90.90;;;;;;5020382;28;20029;-71
2024/01/09 00:12:12;;;;;;;2.45;1.00;;;31.60;90.30;;;;;;5022739;28;20447;-72
2024/01/09 00:14:39;;;;;;;5.30;1.40;;;31.20;89.10;;;;;;5022065;28;20064;-71
2024/01/09 00:17:09;;;;;;;4.35;0.90;;;30.70;90.10;;;;;;5020516;28;20052;-71
2024/01/09 00:19:37;;;;;;;7.80;1.17;;;31.10;90.90;;;;;;5019032;28;20014;-71
2024/01/09 00:22:04;;;;;;;5.07;1.25;;;31.50;89.50;;;;;;5020625;28;20113;-72
2024/01/09 00:24:31;;;;;;;1.83;1.00;;;31.40;89.30;;;;;;5023905;28;20026;-71
2024/01/09 00:26:59;;;;;;;4.22;1.00;;;31.70;90.00;;;;;;5017484;28;20022;-71
2024/01/09 00:29:26;;;;;;;3.35;0.90;;;31.80;87.90;;;;;;5022609;28;20037;-71
2024/01/09 00:31:53;;;;;;;3.60;1.33;;;32.10;88.60;;;;;;5021073;28;20442;-71
2024/01/09 00:34:21;;;;;;;2.97;0.90;;;32.40;87.40;;;;;;5021527;28;20409;-71
2024/01/09 00:36:48;;;;;;;2.88;0.95;;;32.50;87.80;;;;;;5024632;28;20022;-72
2024/01/09 00:39:15;;;;;;;4.75;1.63;;;32.60;86.90;;;;;;5019603;28;20435;-72
2024/01/09 00:41:43;;;;;;;6.30;1.17;;;33.00;89.20;;;;;;5025203;28;20083;-71
2024/01/09 00:44:10;;;;;;;3.33;1.20;;;33.20;83.90;;;;;;5015514;28;20354;-71
2024/01/09 00:46:37;;;;;;;5.05;0.82;;;32.80;86.80;;;;;;5025448;28;20030;-71
2024/01/09 00:49:05;;;;;;;3.70;0.70;;;32.10;86.50;;;;;;5022131;28;20022;-71
2024/01/09 00:51:32;;;;;;;6.47;1.02;;;31.70;86.70;;;;;;5018232;28;20029;-71
2024/01/09 00:53:59;;;;;;;2.58;0.80;;;31.90;87.30;;;;;;5020113;28;20129;-70
2024/01/09 00:56:27;;;;;;;5.88;1.00;;;31.90;87.80;;;;;;5020735;28;20017;-71
2024/01/09 00:58:55;;;;;;;7.53;1.10;;;32.30;89.80;;;;;;5022608;28;20132;-70
2024/01/09 01:01:22;;;;;;;4.40;0.95;;;32.80;88.40;;;;;;5026161;28;20018;-70
2024/01/09 01:03:50;;;;;;;2.50;1.00;;;33.00;86.10;;;;;;5021914;28;20025;-71
2024/01/09 01:06:17;;;;;;;3.67;0.82;;;33.10;82.50;;;;;;5020217;28;20065;-71
2024/01/09 01:08:44;;;;;;;2.20;0.80;;;33.00;83.20;;;;;;5021757;28;20526;-72
2024/01/09 01:11:11;;;;;;;2.90;0.70;;;32.70;82.30;;;;;;5035497;28;20033;-72
2024/01/09 01:13:39;;;;;;;5.00;0.98;;;33.00;85.10;;;;;;5023071;28;20030;-72
2024/01/09 01:16:06;;;;;;;2.55;0.70;;;33.60;83.30;;;;;;5023504;28;20025;-71
2024/01/09 01:18:34;;;;;;;5.38;1.02;;;34.00;82.90;;;;;;5021914;28;20044;-71
2024/01/09 01:21:01;;;;;;;2.28;0.68;;;34.20;80.90;;;;;;5016010;28;20033;-71
2024/01/09 01:23:28;;;;;;;4.38;0.90;;;33.40;79.80;;;;;;5024413;28;20060;-71
2024/01/09 01:25:56;;;;;;;5.82;0.70;;;32.30;81.70;;;;;;5022332;28;20026;-73
2024/01/09 01:28:23;;;;;;;2.83;0.82;;;31.90;83.80;;;;;;5024590;28;20026;-71
2024/01/09 01:30:50;;;;;;;4.05;0.80;;;32.20;82.50;;;;;;5020105;28;20091;-72
2024/01/09 01:33:18;;;;;;;3.70;0.63;;;32.60;82.70;;;;;;5025683;28;20053;-74
2024/01/09 01:35:48;;;;;;;4.18;1.10;;;33.30;83.20;;;;;;5023895;28;20033;-72
2024/01/09 01:38:16;;;;;;;3.95;0.60;;;33.70;80.20;;;;;;5018020;28;20122;-72
2024/01/09 01:40:43;;;;;;;1.83;0.85;;;34.20;81.20;;;;;;5035375;28;20037;-72
2024/01/09 01:43:11;;;;;;;3.17;1.10;;;34.70;78.50;;;;;;5020202;28;20033;-72
2024/01/09 01:45:38;;;;;;;1.95;0.60;;;34.80;78.20;;;;;;5038911;28;20029;-72
2024/01/09 01:48:06;;;;;;;2.65;0.77;;;34.50;76.80;;;;;;5022064;28;20026;-72
2024/01/09 01:50:34;;;;;;;3.65;0.80;;;33.90;78.10;;;;;;5019944;28;20029;-72
2024/01/09 01:53:03;;;;;;;3.17;0.88;;;33.50;79.60;;;;;;5022078;28;20060;-73
2024/01/09 01:55:31;;;;;;;4.35;0.80;;;33.10;80.10;;;;;;5019143;28;20038;-72
2024/01/09 01:57:59;;;;;;;3.22;0.77;;;32.70;79.60;;;;;;5019310;28;20057;-72
2024/01/09 02:00:27;;;;;;;5.38;0.85;;;32.60;80.60;;;;;;5024090;28;20095;-72
2024/01/09 02:02:55;;;;;;;7.00;0.60;;;32.20;79.80;;;;;;5018608;28;20039;-72
2024/01/09 02:05:25;;;;;;;3.45;0.90;;;31.70;80.70;;;;;;5019944;28;20021;-72
2024/01/09 02:07:54;;;;;;;6.00;0.93;;;31.50;82.80;;;;;;5016642;28;20068;-71
2024/01/09 02:10:22;;;;;;;6.32;1.00;;;31.10;82.60;;;;;;5016885;28;20107;-71
2024/01/09 02:12:50;;;;;;;3.97;0.70;;;30.50;83.70;;;;;;5019724;28;20525;-71
2024/01/09 02:15:18;;;;;;;4.40;0.80;;;30.20;84.50;;;;;;5020590;28;20047;-72
2024/01/09 02:17:45;;;;;;;3.03;0.75;;;30.00;85.40;;;;;;5022341;28;20385;-71
2024/01/09 02:20:13;;;;;;;4.97;0.70;;;29.80;86.30;;;;;;5020546;28;20030;-72
2024/01/09 02:22:41;;;;;;;6.32;1.00;;;30.10;86.30;;;;;;5022611;28;20047;-71
2024/01/09 02:25:08;;;;;;;3.42;0.85;;;30.50;85.60;;;;;;5021169;28;20037;-71
2024/01/09 02:27:50;;;;;;;4.57;0.80;;;30.90;85.10;;;;;;5021915;28;20056;-71
2024/01/09 02:30:18;;;;;;;4.40;0.70;;;31.00;85.20;;;;;;5020108;28;20024;-70
2024/01/09 02:32:45;;;;;;;3.38;0.73;;;30.80;84.80;;;;;;5017953;28;20022;-71
2024/01/09 02:35:13;;;;;;;5.22;0.93;;;30.50;85.20;;;;;;5015536;28;20704;-71
2024/01/09 02:37:40;;;;;;;7.03;1.02;;;30.30;85.80;;;;;;5019139;28;20455;-70
2024/01/09 02:40:09;;;;;;;8.85;1.00;;;30.00;86.00;;;;;;5021687;28;20041;-74
2024/01/09 02:42:36;;;;;;;6.97;0.93;;;29.50;87.20;;;;;;5016059;28;20459;-71
2024/01/09 02:45:04;;;;;;;4.40;0.82;;;29.00;88.60;;;;;;5022723;28;20133;-74
2024/01/09 02:47:31;;;;;;;10.27;1.85;;;28.80;89.50;;;;;;5019215;28;20029;-74
2024/01/09 02:49:58;;;;;;;5.45;0.80;;;28.70;90.20;;;;;;5016705;28;20041;-74
2024/01/09 02:52:26;;;;;;;8.13;1.23;;;28.80;90.20;;;;;;5015796;28;20042;-74
2024/01/09 02:54:53;;;;;;;4.45;1.23;;;28.70;90.20;;;;;;5018854;28;20041;-72
2024/01/09 02:57:21;;;;;;;5.07;1.20;;;28.70;91.60;;;;;;5019231;28;20030;-71
2024/01/09 02:59:48;;;;;;;4.32;1.13;;;28.60;91.20;;;;;;5018739;28;20052;-71
2024/01/09 03:02:15;;;;;;;7.18;0.93;;;28.70;91.20;;;;;;5032474;28;20114;-70
2024/01/09 03:04:43;;;;;;;5.63;0.90;;;28.60;91.50;;;;;;5022017;28;20655;-71
2024/01/09 03:07:10;;;;;;;4.38;0.90;;;28.50;93.20;;;;;;5017741;28;20026;-71
2024/01/09 03:09:38;;;;;;;12.32;1.35;;;28.00;94.90;;;;;;5023835;28;20032;-70
2024/01/09 03:12:07;;;;;;;9.75;2.15;;;27.50;96.80;;;;;;5019133;28;20045;-69
2024/01/09 03:14:37;;;;;;;14.45;2.03;;;27.20;98.70;;;;;;5035037;28;20403;-70
2024/01/09 03:17:05;;;;;;;5.70;0.82;;;26.90;99.90;;;;;;5016733;28;20085;-70
2024/01/09 03:19:32;;;;;;;6.15;1.85;;;26.60;99.90;;;;;;5016103;28;20107;-70
2024/01/09 03:22:00;;;;;;;10.68;1.42;;;26.20;99.90;;;;;;5020669;28;20044;-70
2024/01/09 03:24:27;;;;;;;7.43;1.33;;;26.00;99.90;;;;;;5019493;28;20021;-69
2024/01/09 03:26:54;;;;;;;9.88;1.45;;;25.90;99.90;;;;;;5020258;28;20029;-70
2024/01/09 03:29:22;;;;;;;4.35;1.20;;;25.80;99.90;;;;;;5023378;28;20132;-71
2024/01/09 03:31:50;;;;;;;7.82;1.33;;;25.70;99.90;;;;;;5018593;28;20112;-71
2024/01/09 03:34:17;;;;;;;4.70;1.17;;;25.60;99.90;;;;;;5026463;28;20502;-70
2024/01/09 03:36:47;;;;;;;9.10;1.67;;;25.60;99.90;;;;;;5024185;28;20030;-70
2024/01/09 03:39:15;;;;;;;5.82;1.40;;;25.50;99.90;;;;;;5026113;28;20040;-69
2024/01/09 03:41:43;;;;;;;8.23;1.33;;;25.50;99.90;;;;;;5024612;28;20033;-69
2024/01/09 03:44:13;;;;;;;8.98;1.42;;;25.70;99.90;;;;;;5021782;28;20026;-70
2024/01/09 03:46:40;;;;;;;8.07;1.60;;;25.80;99.90;;;;;;5019667;28;20048;-69
2024/01/09 03:49:08;;;;;;;8.07;1.15;;;25.80;99.90;;;;;;5020121;28;20037;-71
2024/01/09 03:51:35;;;;;;;5.30;0.90;;;26.10;99.90;;;;;;5022302;28;20048;-71
2024/01/09 03:54:02;;;;;;;3.75;0.98;;;26.30;99.90;;;;;;5022753;28;20041;-72
2024/01/09 03:56:30;;;;;;;3.95;1.40;;;26.60;99.90;;;;;;5019481;28;20022;-70
2024/01/09 03:58:57;;;;;;;4.60;1.10;;;26.70;99.90;;;;;;5019604;28;20034;-72
2024/01/09 04:01:24;;;;;;;5.72;1.13;;;26.90;99.90;;;;;;5021692;28;20033;-71
2024/01/09 04:03:52;;;;;;;5.22;0.88;;;27.10;99.60;;;;;;5026364;28;20022;-70
2024/01/09 04:06:19;;;;;;;4.85;1.10;;;27.20;99.10;;;;;;5024314;28;20033;-70
2024/01/09 04:08:47;;;;;;;11.70;1.60;;;27.30;99.20;;;;;;5019239;28;20475;-70
2024/01/09 04:11:14;;;;;;;7.60;1.05;;;27.50;98.90;;;;;;5019548;28;20103;-71
2024/01/09 04:13:42;;;;;;;4.72;0.90;;;27.50;98.30;;;;;;5026208;28;20037;-71
2024/01/09 04:16:13;;;;;;;6.40;1.30;;;27.50;97.90;;;;;;5016626;28;20029;-71
2024/01/09 04:18:40;;;;;;;5.13;1.20;;;27.80;98.10;;;;;;5021583;28;20022;-70
2024/01/09 04:21:07;;;;;;;7.75;1.30;;;28.30;97.50;;;;;;5024213;28;20386;-71
2024/01/09 04:23:35;;;;;;;5.60;1.30;;;28.70;97.10;;;;;;5025400;28;20041;-70
2024/01/09 04:26:02;;;;;;;6.88;1.23;;;28.90;96.30;;;;;;5024370;28;20018;-71
2024/01/09 04:28:29;;;;;;;5.82;1.65;;;28.60;96.30;;;;;;5026007;28;20035;-70
2024/01/09 04:30:57;;;;;;;6.03;1.08;;;28.00;96.30;;;;;;5023244;28;20116;-70
2024/01/09 04:33:24;;;;;;;7.65;1.80;;;27.80;96.90;;;;;;5022337;28;20142;-70
2024/01/09 04:35:54;;;;;;;6.50;1.40;;;27.90;96.80;;;;;;5025221;28;20109;-71
2024/01/09 04:38:21;;;;;;;5.50;1.05;;;28.30;96.60;;;;;;5022263;28;20082;-70
2024/01/09 04:40:48;;;;;;;5.82;1.25;;;28.20;95.90;;;;;;5024293;28;20109;-70
2024/01/09 04:43:16;;;;;;;6.93;1.20;;;27.70;96.10;;;;;;5019596;28;20032;-70
2024/01/09 04:45:43;;;;;;;5.28;1.10;;;27.50;96.60;;;;;;5021139;28;20092;-71
2024/01/09 04:48:10;;;;;;;6.25;1.02;;;27.40;96.20;;;;;;5024239;28;20528;-70
2024/01/09 04:50:38;;;;;;;6.82;1.58;;;27.30;96.40;;;;;;5023654;28;20048;-71
2024/01/09 04:53:05;;;;;;;10.63;1.35;;;27.30;96.40;;;;;;5019190;28;20049;-70
2024/01/09 04:55:32;;;;;;;7.78;1.17;;;27.20;96.70;;;;;;5023810;28;20075;-70
2024/01/09 04:58:00;;;;;;;5.22;1.13;;;27.40;96.30;;;;;;5023403;28;20025;-70
2024/01/09 05:00:27;;;;;;;9.02;1.45;;;27.40;96.20;;;;;;5020669;28;20028;-71
2024/01/09 05:02:54;;;;;;;6.97;1.00;;;27.30;95.90;;;;;;5021410;28;20068;-70
2024/01/09 05:05:22;;;;;;;3.78;1.27;;;27.00;95.90;;;;;;5022498;28;20022;-71
2024/01/09 05:07:49;;;;;;;7.28;1.10;;;26.90;96.50;;;;;;5021679;28;20382;-71
2024/01/09 05:10:17;;;;;;;6.13;1.10;;;27.00;96.30;;;;;;5037277;28;20558;-71
2024/01/09 05:12:44;;;;;;;9.32;1.20;;;27.10;95.90;;;;;;5024124;28;20026;-71
2024/01/09 05:15:11;;;;;;;6.32;1.13;;;27.20;95.80;;;;;;5017096;28;20390;-71
2024/01/09 05:17:39;;;;;;;4.95;1.05;;;27.30;95.60;;;;;;5022857;28;20113;-71
2024/01/09 05:20:07;;;;;;;5.95;1.02;;;27.40;95.60;;;;;;5018030;28;20479;-71
2024/01/09 05:22:35;;;;;;;7.57;1.52;;;27.40;96.00;;;;;;5023796;28;20545;-71
2024/01/09 05:25:04;;;;;;;9.00;1.33;;;27.30;95.60;;;;;;5023931;28;20533;-72
2024/01/09 05:27:31;;;;;;;10.18;1.23;;;27.30;95.80;;;;;;5023236;28;20028;-71
2024/01/09 05:29:59;;;;;;;8.77;1.23;;;27.20;96.10;;;;;;5015382;28;20062;-71
2024/01/09 05:32:26;;;;;;;3.53;0.95;;;27.20;95.90;;;;;;5020115;28;20100;-71
2024/01/09 05:34:53;;;;;;;4.97;1.20;;;27.00;96.10;;;;;;5016758;28;20129;-71
2024/01/09 05:37:21;;;;;;;4.57;0.90;;;27.00;95.90;;;;;;5018681;28;20072;-71
2024/01/09 05:39:48;;;;;;;10.20;1.33;;;27.00;95.90;;;;;;5019634;28;20486;-72
2024/01/09 05:42:15;;;;;;;6.53;0.80;;;27.00;96.00;;;;;;5022241;28;20030;-70
2024/01/09 05:44:43;;;;;;;7.30;1.50;;;26.90;96.10;;;;;;5022875;28;20327;-70
2024/01/09 05:47:10;;;;;;;7.57;1.80;;;26.70;96.30;;;;;;5019030;28;20032;-70
2024/01/09 05:49:38;;;;;;;8.75;1.48;;;26.70;96.30;;;;;;5018554;28;20030;-70
2024/01/09 05:52:05;;;;;;;9.40;1.58;;;26.70;96.30;;;;;;5020358;28;20478;-70
2024/01/09 05:54:32;;;;;;;5.68;0.95;;;26.80;96.40;;;;;;5020030;28;20056;-70
2024/01/09 05:57:00;;;;;;;7.10;1.10;;;26.70;96.20;;;;;;5021128;28;20029;-70
2024/01/09 05:59:27;;;;;;;9.70;1.58;;;26.60;96.20;;;;;;5019315;28;20746;-69
2024/01/09 06:01:54;;;;;;;8.27;1.58;;;26.70;96.00;;;;;;5017278;28;20064;-70
2024/01/09 06:04:22;;;;;;;3.75;0.80;;;26.70;95.70;;;;;;5018591;28;20033;-70
2024/01/09 06:06:49;;;;;;;8.13;1.17;;;26.70;95.80;;;;;;5015899;28;20486;-70
2024/01/09 06:09:17;;;;;;;4.95;1.30;;;26.70;95.90;;;;;;5018623;28;20040;-69
2024/01/09 06:11:45;;;;;;;4.47;1.13;;;26.60;95.50;;;;;;5021044;28;20025;-71
2024/01/09 06:14:12;;;;;;;5.22;1.00;;;26.60;95.80;;;;;;5018246;28;20034;-71
2024/01/09 06:16:39;;;;;;;5.07;1.20;;;26.60;95.90;;;;;;5020974;28;20033;-71
2024/01/09 06:19:07;;;;;;;4.78;1.35;;;26.70;95.80;;;;;;5021160;28;20035;-71
2024/01/09 06:21:35;;;;;;;7.00;1.25;;;26.80;96.00;;;;;;5011007;28;20026;-69
2024/01/09 06:24:03;;;;;;;5.25;0.95;;;26.80;95.70;;;;;;5014305;28;20033;-68
2024/01/09 06:26:30;;;;;;;7.38;1.50;;;26.80;95.60;;;;;;5018217;28;20025;-69
2024/01/09 06:28:58;;;;;;;7.05;1.45;;;26.80;95.60;;;;;;5017277;28;20044;-71
2024/01/09 06:31:25;;;;;;;4.90;1.10;;;26.90;95.60;;;;;;5018052;28;20483;-70
2024/01/09 06:33:52;;;;;;;4.07;1.08;;;26.70;95.60;;;;;;5018293;28;20042;-70
2024/01/09 06:36:20;;;;;;;5.72;1.88;;;26.70;95.90;;;;;;5020102;28;20048;-70
2024/01/09 06:38:47;;;;;;;5.80;1.45;;;26.60;95.70;;;;;;5034716;28;20435;-70
2024/01/09 06:41:14;;;;;;;5.07;1.33;;;26.50;95.70;;;;;;5017356;28;20386;-70
2024/01/09 06:43:42;;;;;;;6.00;1.30;;;26.60;95.60;;;;;;5034498;28;20071;-70
2024/01/09 06:46:10;;;;;;;4.38;1.30;;;26.60;95.40;;;;;;5017427;28;20029;-70
2024/01/09 06:48:37;;;;;;;5.18;1.10;;;26.60;95.40;;;;;;5018984;28;20153;-69
2024/01/09 06:51:04;;;;;;;5.05;1.40;;;26.70;95.50;;;;;;5013973;28;20029;-69
2024/01/09 06:53:32;;;;;;;6.30;1.30;;;26.70;95.60;;;;;;5017249;28;20054;-69
2024/01/09 06:55:59;;;;;;;4.03;1.05;;;26.70;95.70;;;;;;5016237;28;20018;-70
2024/01/09 06:58:26;;;;;;;7.13;1.52;;;26.70;95.60;;;;;;5013856;28;20109;-70
2024/01/09 07:00:54;;;;;;;6.10;1.48;;;26.50;95.90;;;;;;5019301;28;20036;-70
2024/01/09 07:03:21;;;;;;;7.75;1.63;;;26.40;96.10;;;;;;5016221;28;20467;-70
2024/01/09 07:05:48;;;;;;;4.90;1.10;;;26.30;96.20;;;;;;5016825;28;20044;-70
2024/01/09 07:08:16;;;;;;;6.43;1.48;;;26.20;96.40;;;;;;5016274;28;20055;-70
2024/01/09 07:10:43;;;;;;;4.78;1.52;;;26.00;96.60;;;;;;5012075;28;20045;-69
2024/01/09 07:13:10;;;;;;;9.10;1.40;;;26.00;96.80;;;;;;5012668;28;20079;-69
2024/01/09 07:15:38;;;;;;;10.85;1.40;;;26.00;96.90;;;;;;5015644;28;20046;-68
2024/01/09 07:18:06;;;;;;;7.85;1.63;;;25.80;96.90;;;;;;5015371;28;20032;-71
2024/01/09 07:20:33;;;;;;;4.25;1.33;;;25.80;97.00;;;;;;5011985;28;20515;-69
2024/01/09 07:23:02;;;;;;;7.75;1.60;;;25.80;97.00;;;;;;5015882;28;20026;-69
2024/01/09 07:25:30;;;;;;;8.68;1.88;;;25.80;97.10;;;;;;5019226;28;20116;-69
2024/01/09 07:27:57;;;;;;;12.05;1.92;;;25.70;97.20;;;;;;5014451;28;20352;-69
2024/01/09 07:30:24;;;;;;;7.80;1.83;;;25.70;97.30;;;;;;5014782;28;20029;-70
2024/01/09 07:32:52;;;;;;;10.32;1.95;;;25.60;97.50;;;;;;5015127;28;20036;-69
2024/01/09 07:35:19;;;;;;;8.00;1.38;;;25.50;97.60;;;;;;5018413;28;20037;-69
2024/01/09 07:37:46;;;;;;;6.95;1.48;;;25.40;97.60;;;;;;5016427;28;20490;-69
2024/01/09 07:40:14;;;;;;;5.35;1.50;;;25.40;97.70;;;;;;5016174;28;20058;-70
2024/01/09 07:42:41;;;;;;;9.02;1.27;;;25.30;97.70;;;;;;5011623;28;20033;-70
2024/01/09 07:45:11;;;;;;;7.97;1.50;;;25.10;97.90;;;;;;5018291;28;20037;-70
2024/01/09 07:47:39;;;;;;;5.63;1.55;;;24.90;98.30;;;;;;5015575;28;20052;-69
2024/01/09 07:50:06;;;;;;;8.90;1.70;;;25.00;98.30;;;;;;5018983;28;20075;-70
2024/01/09 07:52:34;;;;;;;6.47;1.23;;;25.00;98.50;;;;;;5017252;28;20038;-70
2024/01/09 07:55:01;;;;;;;5.13;1.58;;;24.90;98.60;;;;;;5018295;28;20038;-70
2024/01/09 07:57:29;;;;;;;8.02;1.95;;;25.00;98.70;;;;;;5035883;28;20025;-70
2024/01/09 07:59:57;;;;;;;6.97;1.42;;;24.90;98.80;;;;;;5036323;28;20038;-70
2024/01/09 08:02:24;;;;;;;9.88;1.77;;;24.80;99.10;;;;;;5033341;28;20057;-70
2024/01/09 08:04:51;;;;;;;9.60;1.55;;;24.70;99.20;;;;;;5018155;28;20526;-70
2024/01/09 08:07:19;;;;;;;5.35;1.17;;;24.70;99.20;;;;;;5011441;28;20026;-70
2024/01/09 08:09:46;;;;;;;10.18;1.40;;;24.70;99.20;;;;;;5016894;28;20021;-70
2024/01/09 08:12:14;;;;;;;7.80;2.15;;;24.60;99.30;;;;;;5015720;28;20471;-70
2024/01/09 08:14:41;;;;;;;5.80;1.30;;;24.60;99.30;;;;;;5025166;28;20041;-70
2024/01/09 08:17:09;;;;;;;9.88;1.30;;;24.60;99.30;;;;;;5025776;28;20089;-70
2024/01/09 08:19:36;;;;;;;7.43;1.48;;;24.70;99.40;;;;;;5016151;28;20056;-70
2024/01/09 08:22:03;;;;;;;7.60;1.38;;;24.80;99.40;;;;;;5018365;28;20505;-70
2024/01/09 08:24:32;;;;;;;9.93;1.60;;;24.80;99.40;;;;;;5016976;28;20025;-69
2024/01/09 08:26:59;;;;;;;7.78;1.40;;;24.80;99.50;;;;;;5022490;28;20410;-70
2024/01/09 08:29:27;;;;;;;14.23;2.15;;;24.80;99.50;;;;;;5018364;28;20477;-68
2024/01/09 08:31:55;;;;;;;7.22;1.38;;;24.80;99.60;;;;;;5020114;28;20027;-70
2024/01/09 08:34:23;;;;;;;7.85;1.23;;;24.70;99.60;;;;;;5021220;28;20554;-69
2024/01/09 08:36:50;;;;;;;4.78;1.23;;;24.70;99.80;;;;;;5018837;28;20459;-71
2024/01/09 08:39:17;;;;;;;9.77;1.52;;;24.50;99.90;;;;;;5022715;28;20028;-71
2024/01/09 08:41:45;;;;;;;11.10;1.33;;;24.60;99.90;;;;;;5021278;28;20116;-71
2024/01/09 08:44:12;;;;;;;8.35;1.80;;;24.60;99.90;;;;;;5024596;28;20049;-71
2024/01/09 08:46:39;;;;;;;8.80;1.08;;;24.70;99.90;;;;;;5020561;28;20030;-71
2024/01/09 08:49:07;;;;;;;7.25;1.20;;;24.80;99.80;;;;;;5021486;28;20056;-72
2024/01/09 08:51:35;;;;;;;6.45;1.23;;;24.90;99.60;;;;;;5015903;28;20069;-73
2024/01/09 08:54:03;;;;;;;5.28;1.30;;;24.80;99.60;;;;;;5022225;28;20040;-70
2024/01/09 08:56:30;;;;;;;7.63;1.67;;;24.80;99.60;;;;;;5017996;28;20026;-71
2024/01/09 08:58:58;;;;;;;11.00;1.35;;;24.70;99.60;;;;;;5020639;28;20625;-71
2024/01/09 09:01:26;;;;;;;8.68;1.35;;;24.70;99.70;;;;;;5023158;28;20071;-70
2024/01/09 09:03:53;;;;;;;10.98;1.75;;;24.70;99.70;;;;;;5017653;28;20029;-70
2024/01/09 09:06:20;;;;;;;7.97;1.23;;;24.80;99.70;;;;;;5022623;28;20033;-70
2024/01/09 09:08:48;;;;;;;5.68;1.20;;;24.60;99.90;;;;;;5021980;28;20029;-70
2024/01/09 09:11:16;;;;;;;18.70;4.00;;;24.60;99.90;;;;;;5017564;28;20029;-72
2024/01/09 09:13:44;;;;;;;8.57;2.90;;;24.70;99.90;;;;;;5016785;28;20025;-69
2024/01/09 09:16:11;;;;;;;5.00;1.15;;;24.60;99.80;;;;;;5019816;28;20030;-69
2024/01/09 09:18:39;;;;;;;7.80;1.55;;;24.70;99.90;;;;;;5022758;28;20172;-70
2024/01/09 09:21:06;;;;;;;5.03;1.27;;;24.70;99.90;;;;;;5025086;28;20086;-70
2024/01/09 09:23:34;;;;;;;7.00;1.42;;;24.70;99.70;;;;;;5020431;28;20033;-70
2024/01/09 09:26:03;;;;;;;7.30;1.35;;;24.80;99.60;;;;;;5038490;28;20036;-70
2024/01/09 09:28:30;;;;;;;11.50;1.55;;;24.70;99.80;;;;;;5034590;28;20053;-70
2024/01/09 09:30:57;;;;;;;8.10;1.60;;;24.70;99.90;;;;;;5020291;28;20025;-69
2024/01/09 09:33:28;;;;;;;9.52;1.70;;;24.70;99.50;;;;;;5018537;28;20028;-70
2024/01/09 09:35:56;;;;;;;11.13;2.05;;;24.80;99.50;;;;;;5019702;28;20036;-70
2024/01/09 09:38:24;;;;;;;8.80;1.60;;;24.90;99.50;;;;;;5021364;28;20526;-69
2024/01/09 09:40:53;;;;;;;7.07;1.50;;;24.90;99.30;;;;;;5024977;28;20014;-68
2024/01/09 09:43:25;;;;;;;3.38;0.93;;;24.70;99.20;;;;;;5018160;28;20026;-70
2024/01/09 09:45:56;;;;;;;9.68;2.95;;;24.70;99.30;;;;;;5019580;28;20455;-69
2024/01/09 09:48:25;;;;;;;6.95;1.27;;;24.70;99.40;;;;;;5015523;28;20120;-69
2024/01/09 09:50:54;;;;;;;6.28;1.27;;;24.70;99.40;;;;;;5016613;28;20105;-69
2024/01/09 09:53:28;;;;;;;8.27;1.65;;;24.70;99.50;;;;;;5015210;28;20044;-69
2024/01/09 09:55:55;;;;;;;6.50;1.60;;;24.70;99.70;;;;;;5017011;28;20073;-69
2024/01/09 09:58:23;;;;;;;11.77;1.20;;;24.50;99.90;;;;;;5016941;28;20060;-69
2024/01/09 10:00:55;;;;;;;7.45;1.67;;;24.50;99.90;;;;;;5021806;28;20042;-70
2024/01/09 10:03:26;;;;;;;5.18;1.25;;;24.40;99.90;;;;;;5018852;28;20022;-69
2024/01/09 10:05:55;;;;;;;6.00;1.40;;;24.50;99.90;;;;;;5017042;28;20124;-70
2024/01/09 10:08:24;;;;;;;8.52;1.20;;;24.40;99.90;;;;;;5019271;28;20022;-70
2024/01/09 10:10:51;;;;;;;8.23;1.45;;;24.50;99.90;;;;;;5018963;28;20739;-73
2024/01/09 10:13:19;;;;;;;7.72;1.40;;;24.40;99.90;;;;;;5017891;28;20021;-69
2024/01/09 10:16:02;;;;;;;6.55;1.48;;;24.40;99.90;;;;;;5015621;28;20042;-69
2024/01/09 10:18:31;;;;;;;7.65;1.73;;;24.30;99.90;;;;;;5016114;28;20934;-70
2024/01/09 10:21:01;;;;;;;7.68;1.58;;;24.30;99.90;;;;;;5024106;28;20437;-69
2024/01/09 10:23:30;;;;;;;8.88;1.52;;;24.40;99.90;;;;;;5015530;28;20029;-70
2024/01/09 10:25:57;;;;;;;4.65;1.10;;;24.30;99.90;;;;;;5017729;28;20034;-70
2024/01/09 10:28:25;;;;;;;7.35;1.50;;;24.30;99.90;;;;;;5016407;28;20072;-69
2024/01/09 10:30:55;;;;;;;10.00;1.58;;;24.30;99.90;;;;;;5015837;28;20048;-69
2024/01/09 10:33:22;;;;;;;10.82;1.52;;;24.30;99.90;;;;;;5018657;28;20071;-69
2024/01/09 10:35:50;;;;;;;9.32;1.63;;;24.30;99.90;;;;;;5012528;28;20919;-70
2024/01/09 10:38:25;;;;;;;9.70;2.05;;;24.30;99.90;;;;;;5016729;28;20124;-74
2024/01/09 10:40:56;;;;;;;8.55;1.65;;;24.20;99.90;;;;;;5013059;28;20039;-70
2024/01/09 10:43:26;;;;;;;8.57;1.70;;;24.20;99.90;;;;;;5014908;28;20080;-70
2024/01/09 10:45:54;;;;;;;9.90;1.38;;;24.20;99.90;;;;;;5017486;28;20029;-70
2024/01/09 10:48:22;;;;;;;5.82;1.30;;;24.20;99.90;;;;;;5019417;28;20101;-69
2024/01/09 10:50:53;;;;;;;8.93;2.38;;;24.30;99.90;;;;;;5020973;28;20116;-70
2024/01/09 10:53:24;;;;;;;7.95;1.60;;;24.30;99.90;;;;;;5020239;28;20049;-69
2024/01/09 10:55:56;;;;;;;11.18;1.70;;;24.20;99.90;;;;;;5014400;28;20081;-70
2024/01/09 10:58:25;;;;;;;7.57;1.23;;;24.00;99.90;;;;;;5021814;28;20026;-69
2024/01/09 11:00:52;;;;;;;10.73;1.52;;;24.10;99.90;;;;;;5016881;28;20026;-69
2024/01/09 11:03:20;;;;;;;10.80;1.50;;;24.20;99.90;;;;;;5020669;28;20044;-69
2024/01/09 11:05:51;;;;;;;9.05;1.33;;;24.20;99.90;;;;;;5025715;28;20065;-70
2024/01/09 11:08:20;;;;;;;8.82;1.33;;;24.00;99.90;;;;;;5022496;28;20064;-69
2024/01/09 11:10:48;;;;;;;12.48;1.50;;;24.20;99.90;;;;;;5029241;28;20447;-71
2024/01/09 11:13:19;;;;;;;9.77;1.55;;;24.20;99.90;;;;;;5023055;28;20030;-71
2024/01/09 11:15:52;;;;;;;10.95;2.28;;;24.20;99.90;;;;;;5016613;28;20520;-71
2024/01/09 11:18:22;;;;;;;10.02;2.03;;;24.30;99.90;;;;;;5020108;28;20033;-70
2024/01/09 11:21:03;;;;;;;9.52;1.55;;;24.40;99.90;;;;;;5021711;28;20124;-69
2024/01/09 11:23:57;;;;;;;10.43;2.42;;;24.40;99.90;;;;;;5010316;28;20030;-69
2024/01/09 11:26:32;;;;;;;7.25;2.13;;;24.40;99.90;;;;;;5017655;28;20022;-68
2024/01/09 11:28:59;;;;;;;10.80;1.92;;;24.20;99.90;;;;;;5018632;28;20034;-69
2024/01/09 11:31:29;;;;;;;10.63;1.85;;;24.10;99.90;;;;;;5019960;28;20056;-70
2024/01/09 11:33:57;;;;;;;6.93;1.70;;;24.20;99.90;;;;;;5014983;28;20041;-69
2024/01/09 11:36:29;;;;;;;11.45;2.38;;;24.10;99.90;;;;;;5020603;28;20013;-69
2024/01/09 11:38:56;;;;;;;10.00;1.77;;;24.00;99.90;;;;;;5022823;28;20087;-69
2024/01/09 11:41:31;;;;;;;8.60;2.38;;;24.00;99.90;;;;;;5020127;28;20021;-70
2024/01/09 11:44:06;;;;;;;8.05;2.25;;;24.20;99.90;;;;;;5021936;28;20497;-69
2024/01/09 11:46:35;;;;;;;16.40;2.75;;;24.30;99.90;;;;;;5019287;28;20030;-69
2024/01/09 11:49:04;;;;;;;14.82;3.05;;;24.30;99.90;;;;;;5021196;28;20375;-69
2024/01/09 11:51:34;;;;;;;7.82;1.90;;;24.30;99.90;;;;;;5019977;28;20698;-70
2024/01/09 11:54:08;;;;;;;12.10;2.10;;;24.20;99.90;;;;;;5019410;28;20487;-69
2024/01/09 11:56:36;;;;;;;11.73;3.47;;;24.10;99.90;;;;;;5024775;28;20438;-70
2024/01/09 11:59:04;;;;;;;14.98;2.25;;;24.20;99.90;;;;;;5019784;28;20030;-69
2024/01/09 12:01:31;;;;;;;9.13;2.03;;;24.30;99.90;;;;;;5020731;28;20398;-70
2024/01/09 12:03:59;;;;;;;12.23;1.92;;;24.30;99.90;;;;;;5019543;28;20037;-69
2024/01/09 12:06:31;;;;;;;9.73;2.03;;;24.10;99.90;;;;;;5019938;28;20108;-70
2024/01/09 12:08:59;;;;;;;9.23;1.50;;;24.00;99.90;;;;;;5016048;28;20021;-69
2024/01/09 12:11:26;;;;;;;10.60;2.03;;;24.00;99.90;;;;;;5020135;28;20040;-69
2024/01/09 12:14:04;;;;;;;12.10;2.20;;;24.00;99.90;;;;;;5021119;28;20065;-70
2024/01/09 12:16:32;;;;;;;14.35;2.67;;;23.80;99.90;;;;;;5021848;28;20506;-69
2024/01/09 12:19:00;;;;;;;10.63;2.55;;;23.80;99.90;;;;;;5023136;28;20414;-69
2024/01/09 12:21:30;;;;;;;9.07;2.28;;;24.10;99.90;;;;;;5025095;28;20017;-69
2024/01/09 12:24:00;;;;;;;14.48;2.55;;;24.00;99.90;;;;;;5022578;28;20450;-70
2024/01/09 12:26:28;;;;;;;10.73;1.75;;;24.10;99.90;;;;;;5018634;28;20064;-68
2024/01/09 12:28:56;;;;;;;11.38;1.90;;;24.10;99.90;;;;;;5019171;28;20116;-69
2024/01/09 12:31:25;;;;;;;14.63;2.45;;;23.80;99.90;;;;;;5023331;28;20025;-68
2024/01/09 12:33:56;;;;;;;12.52;2.08;;;23.60;99.90;;;;;;5021028;28;20065;-69
2024/01/09 12:36:28;;;;;;;10.98;1.80;;;23.60;99.90;;;;;;5022454;28;20033;-69
2024/01/09 12:38:56;;;;;;;10.45;1.65;;;23.60;99.90;;;;;;5023678;28;20367;-69
2024/01/09 12:41:23;;;;;;;10.32;2.63;;;23.50;99.90;;;;;;5022035;28;20025;-69
2024/01/09 12:43:52;;;;;;;10.65;2.10;;;23.50;99.90;;;;;;5018907;28;20029;-69
2024/01/09 12:46:23;;;;;;;12.70;2.45;;;23.50;99.90;;;;;;5019092;28;20565;-69
2024/01/09 12:48:53;;;;;;;10.75;1.95;;;23.50;99.90;;;;;;5018741;28;20053;-69
2024/01/09 12:51:20;;;;;;;11.93;1.98;;;23.40;99.90;;;;;;5020761;28;20467;-68